Time;durP1;ratioP1;P1;durP2;ratioP2;P2;SDS_P1;SDS_P2;PMS_P1;PMS_P2;Temp;Humidity;BMP_temperature;BMP_pressure;BME280_temperature;BME280_humidity;BME280_pressure;Samples;Min_cycle;Max_cycle;Signal;HPM_P1;HPM_P2
2021/10/31 00:01:10;;;;;;;0.10;0.10;;;;;;;;;;5953026;24;20055;-90
2021/10/31 00:03:36;;;;;;;0.10;0.10;;;;;;;;;;5953034;24;20017;-91
2021/10/31 00:06:02;;;;;;;0.10;0.10;;;;;;;;;;5930309;24;20070;-91
2021/10/31 00:08:28;;;;;;;0.10;0.10;;;;;;;;;;5953166;24;20016;-91
2021/10/31 00:10:56;;;;;;;0.10;0.10;;;;;;;;;;5952884;24;20017;-91
2021/10/31 00:13:23;;;;;;;0.10;0.10;;;;;;;;;;5930049;24;20020;-91
2021/10/31 00:15:49;;;;;;;0.15;0.15;;;;;;;;;;5952949;24;20024;-91
2021/10/31 00:18:15;;;;;;;0.10;0.10;;;;;;;;;;5930002;24;20020;-90
2021/10/31 00:20:41;;;;;;;0.10;0.10;;;;;;;;;;5929974;24;20025;-90
2021/10/31 00:23:07;;;;;;;0.17;0.17;;;;;;;;;;5953141;24;20056;-91
2021/10/31 00:25:33;;;;;;;0.10;0.10;;;;;;;;;;5952931;24;20048;-91
2021/10/31 00:27:59;;;;;;;0.10;0.10;;;;;;;;;;5953521;24;20077;-91
2021/10/31 00:30:25;;;;;;;0.65;0.63;;;;;;;;;;5953107;24;20467;-91
2021/10/31 00:32:51;;;;;;;0.10;0.10;;;;;;;;;;5929823;24;20023;-90
2021/10/31 00:35:17;;;;;;;0.17;0.17;;;;;;;;;;5929859;24;20020;-91
2021/10/31 00:37:43;;;;;;;0.10;0.10;;;;;;;;;;5930157;24;20040;-91
2021/10/31 00:40:09;;;;;;;0.10;0.10;;;;;;;;;;5929743;24;20013;-91
2021/10/31 00:42:35;;;;;;;0.10;0.10;;;;;;;;;;5929870;24;20032;-90
2021/10/31 00:45:01;;;;;;;0.10;0.10;;;;;;;;;;5930447;24;20017;-91
2021/10/31 00:47:27;;;;;;;0.10;0.10;;;;;;;;;;5929862;24;20080;-91
2021/10/31 00:49:53;;;;;;;0.10;0.10;;;;;;;;;;5925168;24;20055;-91
2021/10/31 00:52:19;;;;;;;0.10;0.10;;;;;;;;;;5925236;24;20033;-90
2021/10/31 00:54:45;;;;;;;0.10;0.10;;;;;;;;;;5948106;24;20475;-91
2021/10/31 00:57:11;;;;;;;0.20;0.20;;;;;;;;;;5925502;24;20021;-90
2021/10/31 00:59:37;;;;;;;0.10;0.10;;;;;;;;;;5924938;24;20054;-90
2021/10/31 01:02:09;;;;;;;0.10;0.10;;;;;;;;;;5925263;24;20013;-91
2021/10/31 01:04:35;;;;;;;0.10;0.10;;;;;;;;;;5924349;24;20503;-91
2021/10/31 01:07:16;;;;;;;0.10;0.10;;;;;;;;;;5925141;24;20056;-92
2021/10/31 01:10:04;;;;;;;0.10;0.10;;;;;;;;;;5948422;24;20017;-91
2021/10/31 01:12:34;;;;;;;0.10;0.10;;;;;;;;;;5948288;24;20089;-91
2021/10/31 01:15:12;;;;;;;0.10;0.10;;;;;;;;;;5948039;24;20044;-91
2021/10/31 01:17:47;;;;;;;0.10;0.10;;;;;;;;;;5948343;24;20082;-91
2021/10/31 01:20:15;;;;;;;0.10;0.10;;;;;;;;;;5947957;24;20448;-91
2021/10/31 01:22:41;;;;;;;0.10;0.10;;;;;;;;;;5925352;24;20036;-91
2021/10/31 01:25:07;;;;;;;0.10;0.10;;;;;;;;;;5948190;24;20017;-91
2021/10/31 01:27:48;;;;;;;0.10;0.10;;;;;;;;;;5948362;24;20017;-91
2021/10/31 01:30:17;;;;;;;0.17;0.17;;;;;;;;;;5924954;24;20047;-92
2021/10/31 01:32:52;;;;;;;0.17;0.17;;;;;;;;;;5948055;24;20028;-92
2021/10/31 01:35:18;;;;;;;0.20;0.20;;;;;;;;;;5948260;24;20017;-92
2021/10/31 01:38:02;;;;;;;0.20;0.20;;;;;;;;;;5948238;24;20023;-91
2021/10/31 01:40:30;;;;;;;0.10;0.10;;;;;;;;;;5948137;24;20074;-91
2021/10/31 01:43:15;;;;;;;1.00;0.20;;;;;;;;;;5925166;24;20016;-92
2021/10/31 01:45:59;;;;;;;0.10;0.10;;;;;;;;;;5948066;24;20020;-93
2021/10/31 01:48:27;;;;;;;0.10;0.10;;;;;;;;;;5948528;24;20021;-92
2021/10/31 01:50:54;;;;;;;0.10;0.10;;;;;;;;;;5947989;24;20080;-90
2021/10/31 01:53:30;;;;;;;0.10;0.10;;;;;;;;;;5924973;24;20032;-91
2021/10/31 01:56:02;;;;;;;0.20;0.20;;;;;;;;;;5925014;24;20017;-91
2021/10/31 01:58:28;;;;;;;0.10;0.10;;;;;;;;;;5924505;24;20027;-92
2021/10/31 02:00:54;;;;;;;0.10;0.10;;;;;;;;;;5948433;24;20504;-90
2021/10/31 02:03:20;;;;;;;0.10;0.10;;;;;;;;;;5926720;24;20024;-91
2021/10/31 02:05:46;;;;;;;0.10;0.10;;;;;;;;;;5926420;24;20017;-91
2021/10/31 02:08:13;;;;;;;0.10;0.10;;;;;;;;;;5926906;24;20084;-92
2021/10/31 02:10:39;;;;;;;0.10;0.10;;;;;;;;;;5926741;24;20025;-91
2021/10/31 02:13:06;;;;;;;0.28;0.20;;;;;;;;;;5926784;24;20028;-91
2021/10/31 02:15:32;;;;;;;0.20;0.20;;;;;;;;;;5926897;24;20049;-92
2021/10/31 02:17:58;;;;;;;0.10;0.10;;;;;;;;;;5926756;24;20020;-92
2021/10/31 02:20:24;;;;;;;0.10;0.10;;;;;;;;;;5926616;24;20077;-91
2021/10/31 02:22:52;;;;;;;0.10;0.10;;;;;;;;;;5926357;24;20017;-92
2021/10/31 02:25:18;;;;;;;0.10;0.10;;;;;;;;;;5949970;24;20069;-91
2021/10/31 02:27:45;;;;;;;0.10;0.10;;;;;;;;;;5926429;24;20013;-90
2021/10/31 02:30:11;;;;;;;0.10;0.10;;;;;;;;;;5926972;24;20055;-91
2021/10/31 02:32:37;;;;;;;0.10;0.10;;;;;;;;;;5926378;24;20021;-91
2021/10/31 02:35:05;;;;;;;0.10;0.10;;;;;;;;;;5926445;24;20089;-91
2021/10/31 02:37:31;;;;;;;0.20;0.20;;;;;;;;;;5925753;24;20028;-90
2021/10/31 02:39:57;;;;;;;0.10;0.10;;;;;;;;;;5926296;24;20017;-92
2021/10/31 02:42:23;;;;;;;0.10;0.10;;;;;;;;;;5926748;24;20039;-91
2021/10/31 02:44:49;;;;;;;0.10;0.10;;;;;;;;;;5926175;24;20013;-92
2021/10/31 02:47:17;;;;;;;0.10;0.10;;;;;;;;;;5949582;24;20021;-92
2021/10/31 02:49:44;;;;;;;0.10;0.10;;;;;;;;;;5949748;24;20025;-93
2021/10/31 02:52:27;;;;;;;0.10;0.10;;;;;;;;;;5949765;24;20021;-91
2021/10/31 02:55:00;;;;;;;0.10;0.10;;;;;;;;;;5926680;24;20021;-91
2021/10/31 02:57:25;;;;;;;;;;;;;;;;;;5950273;24;20100;-92
2021/10/31 02:59:53;;;;;;;0.10;0.10;;;;;;;;;;5949546;24;20346;-92
2021/10/31 03:02:18;;;;;;;0.10;0.10;;;;;;;;;;5926764;24;20048;-91
2021/10/31 03:04:45;;;;;;;0.10;0.10;;;;;;;;;;5926401;24;20017;-91
2021/10/31 03:07:11;;;;;;;0.10;0.10;;;;;;;;;;5949465;24;20017;-91
2021/10/31 03:09:37;;;;;;;0.10;0.10;;;;;;;;;;5926347;24;20031;-91
2021/10/31 03:12:04;;;;;;;0.10;0.10;;;;;;;;;;5926001;24;20016;-91
2021/10/31 03:14:30;;;;;;;0.20;0.20;;;;;;;;;;5926088;24;20020;-92
2021/10/31 03:16:56;;;;;;;0.10;0.10;;;;;;;;;;5949434;24;20386;-93
2021/10/31 03:19:22;;;;;;;0.10;0.10;;;;;;;;;;5926283;24;20054;-91
2021/10/31 03:21:48;;;;;;;0.30;0.30;;;;;;;;;;5949459;24;20013;-91
2021/10/31 03:24:14;;;;;;;0.10;0.10;;;;;;;;;;5949587;24;20013;-92
2021/10/31 03:26:40;;;;;;;0.10;0.10;;;;;;;;;;5926845;24;20021;-91
2021/10/31 03:29:06;;;;;;;0.10;0.10;;;;;;;;;;5926412;24;20013;-91
2021/10/31 03:31:32;;;;;;;0.10;0.10;;;;;;;;;;5926296;24;20052;-92
2021/10/31 03:33:58;;;;;;;0.10;0.10;;;;;;;;;;5926433;24;20017;-92
2021/10/31 03:36:24;;;;;;;0.10;0.10;;;;;;;;;;5926635;24;20021;-92
2021/10/31 03:38:50;;;;;;;0.70;0.63;;;;;;;;;;5926373;24;20100;-92
2021/10/31 03:41:16;;;;;;;0.35;0.20;;;;;;;;;;5926310;24;20340;-92
2021/10/31 03:43:42;;;;;;;0.10;0.10;;;;;;;;;;5926365;24;20079;-91
2021/10/31 03:46:08;;;;;;;0.10;0.10;;;;;;;;;;5948886;24;20088;-90
2021/10/31 03:48:34;;;;;;;0.10;0.10;;;;;;;;;;5926044;24;20017;-92
2021/10/31 03:51:00;;;;;;;0.10;0.10;;;;;;;;;;5949334;24;20388;-91
2021/10/31 03:53:26;;;;;;;0.20;0.20;;;;;;;;;;5926186;24;20025;-91
2021/10/31 03:55:52;;;;;;;0.10;0.10;;;;;;;;;;5926036;24;20021;-92
2021/10/31 03:58:18;;;;;;;0.10;0.10;;;;;;;;;;5926305;24;20017;-93
2021/10/31 04:00:44;;;;;;;0.10;0.10;;;;;;;;;;5926985;24;20032;-92
2021/10/31 04:03:10;;;;;;;0.43;0.43;;;;;;;;;;5926172;24;20046;-92
2021/10/31 04:05:37;;;;;;;0.10;0.10;;;;;;;;;;5925865;24;20092;-91
2021/10/31 04:08:03;;;;;;;0.10;0.10;;;;;;;;;;5926035;24;20017;-92
2021/10/31 04:10:29;;;;;;;0.22;0.13;;;;;;;;;;5949072;24;20371;-92
2021/10/31 04:12:55;;;;;;;0.10;0.10;;;;;;;;;;5925874;24;20446;-91
2021/10/31 04:15:21;;;;;;;0.10;0.10;;;;;;;;;;5925879;24;20021;-93
2021/10/31 04:17:47;;;;;;;0.10;0.10;;;;;;;;;;5949483;24;20021;-92
2021/10/31 04:20:14;;;;;;;0.10;0.10;;;;;;;;;;5926090;24;20104;-92
2021/10/31 04:22:40;;;;;;;0.10;0.10;;;;;;;;;;5925836;24;20403;-93
2021/10/31 04:25:06;;;;;;;0.47;0.20;;;;;;;;;;5925527;24;20013;-92
2021/10/31 04:27:32;;;;;;;0.10;0.10;;;;;;;;;;5925593;24;20451;-91
2021/10/31 04:29:58;;;;;;;0.13;0.13;;;;;;;;;;5925797;24;20024;-92
2021/10/31 04:32:24;;;;;;;0.10;0.10;;;;;;;;;;5926140;24;20021;-92
2021/10/31 04:34:50;;;;;;;0.20;0.20;;;;;;;;;;5925743;24;20095;-93
2021/10/31 04:37:17;;;;;;;0.32;0.30;;;;;;;;;;5925842;24;20017;-91
2021/10/31 04:39:43;;;;;;;0.10;0.10;;;;;;;;;;5925536;24;20021;-91
2021/10/31 04:42:10;;;;;;;0.17;0.17;;;;;;;;;;5948539;24;20017;-92
2021/10/31 04:44:36;;;;;;;0.10;0.10;;;;;;;;;;5925679;24;20017;-92
2021/10/31 04:47:03;;;;;;;0.10;0.10;;;;;;;;;;5948584;24;20108;-91
2021/10/31 04:49:29;;;;;;;0.45;0.45;;;;;;;;;;5925692;24;20024;-92
2021/10/31 04:51:55;;;;;;;0.10;0.10;;;;;;;;;;5925793;24;20024;-92
2021/10/31 04:54:21;;;;;;;0.10;0.10;;;;;;;;;;5948462;24;20013;-92
2021/10/31 04:56:47;;;;;;;0.10;0.10;;;;;;;;;;5925769;24;20013;-91
2021/10/31 04:59:13;;;;;;;0.10;0.10;;;;;;;;;;5925410;24;20013;-91
2021/10/31 05:01:39;;;;;;;1.05;0.20;;;;;;;;;;5925695;24;20024;-93
2021/10/31 05:04:05;;;;;;;0.10;0.10;;;;;;;;;;5925566;24;20017;-91
2021/10/31 05:06:33;;;;;;;0.10;0.10;;;;;;;;;;5925438;24;20097;-92
2021/10/31 05:08:59;;;;;;;0.10;0.10;;;;;;;;;;5925870;24;20041;-94
2021/10/31 05:11:25;;;;;;;0.10;0.10;;;;;;;;;;5925793;24;20033;-91
2021/10/31 05:13:51;;;;;;;0.65;0.65;;;;;;;;;;5925599;24;20482;-92
2021/10/31 05:16:17;;;;;;;0.10;0.10;;;;;;;;;;5925549;24;20028;-92
2021/10/31 05:18:43;;;;;;;0.30;0.20;;;;;;;;;;5948458;24;20024;-92
2021/10/31 05:21:09;;;;;;;0.10;0.10;;;;;;;;;;5948441;24;20398;-92
2021/10/31 05:23:35;;;;;;;0.10;0.10;;;;;;;;;;5948751;24;20053;-93
2021/10/31 05:26:01;;;;;;;0.10;0.10;;;;;;;;;;5925917;24;20296;-93
2021/10/31 05:28:28;;;;;;;0.63;0.63;;;;;;;;;;5925519;24;20161;-92
2021/10/31 05:30:55;;;;;;;0.10;0.10;;;;;;;;;;5948703;24;20099;-93
2021/10/31 05:33:23;;;;;;;0.40;0.32;;;;;;;;;;5925548;24;20428;-92
2021/10/31 05:35:51;;;;;;;0.10;0.10;;;;;;;;;;5925258;24;20561;-92
2021/10/31 05:38:19;;;;;;;0.10;0.10;;;;;;;;;;5925709;24;20403;-92
2021/10/31 05:40:45;;;;;;;0.10;0.10;;;;;;;;;;5925616;24;20017;-91
2021/10/31 05:43:11;;;;;;;0.10;0.10;;;;;;;;;;5948399;24;20020;-92
2021/10/31 05:45:37;;;;;;;0.20;0.20;;;;;;;;;;5925601;24;20014;-92
2021/10/31 05:48:03;;;;;;;0.10;0.10;;;;;;;;;;5925769;24;20048;-91
2021/10/31 05:50:29;;;;;;;0.10;0.10;;;;;;;;;;5948068;24;20053;-91
2021/10/31 05:52:55;;;;;;;0.20;0.20;;;;;;;;;;5925238;24;20032;-92
2021/10/31 05:55:21;;;;;;;0.10;0.10;;;;;;;;;;5925499;24;20574;-92
2021/10/31 05:57:47;;;;;;;0.20;0.20;;;;;;;;;;5925218;24;20104;-91
2021/10/31 06:00:14;;;;;;;0.10;0.10;;;;;;;;;;5925475;24;20444;-91
2021/10/31 06:02:40;;;;;;;0.10;0.10;;;;;;;;;;5948095;24;20032;-91
2021/10/31 06:05:06;;;;;;;0.20;0.20;;;;;;;;;;5948205;24;20024;-92
2021/10/31 06:07:32;;;;;;;0.10;0.10;;;;;;;;;;5925308;24;20048;-91
2021/10/31 06:09:58;;;;;;;0.10;0.10;;;;;;;;;;5948042;24;20017;-92
2021/10/31 06:12:24;;;;;;;0.10;0.10;;;;;;;;;;5925333;24;20031;-91
2021/10/31 06:14:50;;;;;;;0.15;0.15;;;;;;;;;;5925112;24;20089;-92
2021/10/31 06:17:16;;;;;;;0.10;0.10;;;;;;;;;;5924986;24;20017;-92
2021/10/31 06:19:42;;;;;;;0.15;0.15;;;;;;;;;;5925184;24;20024;-92
2021/10/31 06:22:08;;;;;;;0.10;0.10;;;;;;;;;;5925116;24;20485;-92
2021/10/31 06:24:34;;;;;;;0.10;0.10;;;;;;;;;;5948014;24;20146;-91
2021/10/31 06:27:00;;;;;;;0.10;0.10;;;;;;;;;;5948036;24;20054;-91
2021/10/31 06:29:26;;;;;;;0.10;0.10;;;;;;;;;;5925202;24;20055;-91
2021/10/31 06:31:52;;;;;;;0.10;0.10;;;;;;;;;;5924958;24;20104;-91
2021/10/31 06:34:18;;;;;;;1.10;0.28;;;;;;;;;;5947931;24;20078;-92
2021/10/31 06:36:44;;;;;;;0.10;0.10;;;;;;;;;;5925110;24;20021;-92
2021/10/31 06:39:10;;;;;;;0.10;0.10;;;;;;;;;;5925092;24;20049;-91
2021/10/31 06:41:36;;;;;;;0.10;0.10;;;;;;;;;;5925331;24;20040;-92
2021/10/31 06:44:02;;;;;;;0.10;0.10;;;;;;;;;;5925166;24;20065;-91
2021/10/31 06:46:29;;;;;;;0.10;0.10;;;;;;;;;;5925709;24;20157;-91
2021/10/31 06:48:55;;;;;;;0.10;0.10;;;;;;;;;;5951006;24;20073;-92
2021/10/31 06:51:21;;;;;;;0.10;0.10;;;;;;;;;;5931378;24;20024;-92
2021/10/31 06:53:48;;;;;;;0.10;0.10;;;;;;;;;;5931378;24;20025;-91
2021/10/31 06:56:14;;;;;;;0.10;0.10;;;;;;;;;;5930930;24;20089;-92
2021/10/31 06:58:40;;;;;;;0.13;0.13;;;;;;;;;;5953997;24;20047;-91
2021/10/31 07:01:06;;;;;;;0.50;0.50;;;;;;;;;;5931544;24;20440;-91
2021/10/31 07:03:32;;;;;;;0.10;0.10;;;;;;;;;;5930976;24;20373;-92
2021/10/31 07:06:01;;;;;;;0.13;0.13;;;;;;;;;;5931430;24;20081;-95
2021/10/31 07:08:27;;;;;;;0.10;0.10;;;;;;;;;;5954254;24;20013;-92
2021/10/31 07:10:53;;;;;;;0.10;0.10;;;;;;;;;;5931406;24;20092;-92
2021/10/31 07:13:19;;;;;;;0.25;0.25;;;;;;;;;;5954442;24;20511;-90
2021/10/31 07:15:45;;;;;;;0.10;0.10;;;;;;;;;;5953578;24;20344;-88
2021/10/31 07:18:11;;;;;;;0.20;0.20;;;;;;;;;;5931073;24;20020;-94
2021/10/31 07:20:38;;;;;;;0.10;0.10;;;;;;;;;;5930751;24;20393;-90
2021/10/31 07:23:04;;;;;;;0.10;0.10;;;;;;;;;;5953664;24;20021;-91
2021/10/31 07:25:30;;;;;;;0.47;0.47;;;;;;;;;;5931197;24;20052;-91
2021/10/31 07:27:56;;;;;;;0.10;0.10;;;;;;;;;;5930708;24;20023;-89
2021/10/31 07:30:24;;;;;;;0.47;0.20;;;;;;;;;;5953840;24;20027;-91
2021/10/31 07:32:59;;;;;;;0.10;0.10;;;;;;;;;;5930688;24;20067;-90
2021/10/31 07:35:27;;;;;;;0.10;0.10;;;;;;;;;;5930659;24;20028;-91
2021/10/31 07:37:53;;;;;;;0.10;0.10;;;;;;;;;;5953625;24;20100;-90
2021/10/31 07:40:19;;;;;;;0.10;0.10;;;;;;;;;;5953449;24;20273;-91
2021/10/31 07:42:46;;;;;;;0.10;0.10;;;;;;;;;;5930711;24;20020;-91
2021/10/31 07:45:12;;;;;;;0.20;0.20;;;;;;;;;;5931001;24;20020;-94
2021/10/31 07:47:38;;;;;;;0.10;0.10;;;;;;;;;;5930947;24;20047;-91
2021/10/31 07:50:05;;;;;;;0.10;0.10;;;;;;;;;;5953749;24;20021;-92
2021/10/31 07:52:31;;;;;;;0.10;0.10;;;;;;;;;;5931103;24;20035;-92
2021/10/31 07:54:57;;;;;;;0.10;0.10;;;;;;;;;;5929569;24;20107;-90
2021/10/31 07:57:25;;;;;;;0.10;0.10;;;;;;;;;;5930193;24;20031;-90
2021/10/31 07:59:51;;;;;;;0.10;0.10;;;;;;;;;;5929650;24;20100;-88
2021/10/31 08:02:18;;;;;;;0.10;0.10;;;;;;;;;;5930045;24;20273;-90
2021/10/31 08:04:44;;;;;;;0.30;0.30;;;;;;;;;;5929974;24;20044;-91
2021/10/31 08:07:10;;;;;;;0.10;0.10;;;;;;;;;;5954283;24;20077;-91
2021/10/31 08:09:36;;;;;;;0.10;0.10;;;;;;;;;;5931024;24;20013;-91
2021/10/31 08:12:02;;;;;;;0.10;0.10;;;;;;;;;;5930922;24;20056;-93
2021/10/31 08:14:28;;;;;;;0.10;0.10;;;;;;;;;;5930806;24;20012;-95
2021/10/31 08:16:54;;;;;;;0.10;0.10;;;;;;;;;;5930927;24;20458;-93
2021/10/31 08:19:24;;;;;;;0.22;0.22;;;;;;;;;;5930717;24;20017;-94
2021/10/31 08:21:50;;;;;;;0.50;0.50;;;;;;;;;;5931429;24;20055;-92
2021/10/31 08:24:17;;;;;;;0.10;0.10;;;;;;;;;;5930900;24;20069;-92
2021/10/31 08:26:43;;;;;;;0.20;0.20;;;;;;;;;;5956115;24;20036;-92
2021/10/31 08:29:11;;;;;;;0.17;0.17;;;;;;;;;;5941924;24;20028;-91
2021/10/31 08:31:40;;;;;;;0.10;0.10;;;;;;;;;;5939888;24;20028;-91
2021/10/31 08:34:07;;;;;;;0.22;0.22;;;;;;;;;;5940350;24;20008;-91
2021/10/31 08:36:32;;;;;;;0.10;0.10;;;;;;;;;;5930706;24;20027;-89
2021/10/31 08:38:58;;;;;;;0.20;0.20;;;;;;;;;;5935062;24;20458;-91
2021/10/31 08:41:25;;;;;;;0.10;0.10;;;;;;;;;;5954104;24;20021;-92
2021/10/31 08:43:51;;;;;;;0.80;0.80;;;;;;;;;;5956180;24;20369;-90
2021/10/31 08:46:17;;;;;;;0.10;0.10;;;;;;;;;;5929887;24;20084;-91
2021/10/31 08:48:43;;;;;;;0.10;0.10;;;;;;;;;;5929921;24;20013;-92
2021/10/31 08:51:09;;;;;;;0.10;0.10;;;;;;;;;;5925367;24;20032;-91
2021/10/31 08:53:35;;;;;;;0.13;0.13;;;;;;;;;;5925361;24;20025;-91
2021/10/31 08:56:01;;;;;;;0.10;0.10;;;;;;;;;;5924972;24;20024;-90
2021/10/31 08:58:27;;;;;;;0.10;0.10;;;;;;;;;;5924876;24;20450;-90
2021/10/31 09:00:53;;;;;;;0.30;0.25;;;;;;;;;;5924701;24;20502;-90
2021/10/31 09:03:19;;;;;;;0.20;0.20;;;;;;;;;;5947837;24;20017;-92
2021/10/31 09:05:45;;;;;;;0.20;0.20;;;;;;;;;;5925390;24;20395;-94
2021/10/31 09:08:11;;;;;;;0.10;0.10;;;;;;;;;;5927476;24;20500;-93
2021/10/31 09:10:38;;;;;;;0.32;0.32;;;;;;;;;;5925248;24;20084;-93
2021/10/31 09:13:04;;;;;;;0.15;0.15;;;;;;;;;;5925554;24;20096;-93
2021/10/31 09:15:30;;;;;;;0.65;0.65;;;;;;;;;;5925597;24;20021;-92
2021/10/31 09:17:57;;;;;;;0.10;0.10;;;;;;;;;;5925087;24;20050;-91
2021/10/31 09:20:25;;;;;;;0.10;0.10;;;;;;;;;;5924730;24;20060;-93
2021/10/31 09:22:52;;;;;;;0.10;0.10;;;;;;;;;;5924519;24;20092;-91
2021/10/31 09:25:18;;;;;;;0.20;0.20;;;;;;;;;;5924717;24;20013;-91
2021/10/31 09:27:45;;;;;;;0.30;0.30;;;;;;;;;;5947835;24;20048;-91
2021/10/31 09:30:11;;;;;;;0.17;0.17;;;;;;;;;;5947877;24;20017;-90
2021/10/31 09:32:43;;;;;;;0.20;0.20;;;;;;;;;;5924629;24;20039;-91
2021/10/31 09:35:09;;;;;;;0.10;0.10;;;;;;;;;;5948594;24;20017;-89
2021/10/31 09:37:35;;;;;;;0.10;0.10;;;;;;;;;;5947916;24;20028;-93
2021/10/31 09:40:03;;;;;;;0.10;0.10;;;;;;;;;;5924659;24;20053;-92
2021/10/31 09:42:30;;;;;;;0.40;0.40;;;;;;;;;;5926758;24;20069;-94
2021/10/31 09:44:59;;;;;;;0.10;0.10;;;;;;;;;;5928254;24;20005;-94
2021/10/31 09:47:25;;;;;;;0.10;0.10;;;;;;;;;;5925791;24;20028;-92
2021/10/31 09:49:51;;;;;;;0.10;0.10;;;;;;;;;;5926827;24;20282;-92
2021/10/31 09:52:17;;;;;;;0.10;0.10;;;;;;;;;;5925033;24;20045;-93
2021/10/31 09:54:43;;;;;;;0.10;0.10;;;;;;;;;;5925736;24;20013;-94
2021/10/31 09:57:09;;;;;;;0.10;0.10;;;;;;;;;;5948291;24;20024;-93
2021/10/31 09:59:41;;;;;;;0.20;0.20;;;;;;;;;;5925534;24;20013;-94
2021/10/31 10:04:34;;;;;;;0.10;0.10;;;;;;;;;;5948267;24;20025;-94
2021/10/31 10:07:01;;;;;;;0.10;0.10;;;;;;;;;;5925188;24;20093;-95
2021/10/31 10:09:28;;;;;;;0.20;0.20;;;;;;;;;;5925621;24;20013;-93
2021/10/31 10:11:54;;;;;;;0.10;0.10;;;;;;;;;;5927222;24;20021;-93
2021/10/31 10:14:24;;;;;;;0.10;0.10;;;;;;;;;;5925609;24;20078;-93
2021/10/31 10:16:54;;;;;;;0.10;0.10;;;;;;;;;;5948863;24;20029;-94
2021/10/31 10:19:22;;;;;;;0.20;0.20;;;;;;;;;;5925755;24;20032;-94
2021/10/31 10:21:51;;;;;;;0.10;0.10;;;;;;;;;;5926316;24;20281;-94
2021/10/31 10:24:23;;;;;;;0.10;0.10;;;;;;;;;;5927084;24;20035;-93
2021/10/31 10:26:51;;;;;;;0.28;0.28;;;;;;;;;;5926938;24;20448;-94
2021/10/31 10:29:19;;;;;;;0.20;0.20;;;;;;;;;;5927009;24;20052;-94
2021/10/31 10:31:46;;;;;;;0.20;0.20;;;;;;;;;;5950572;24;20046;-94
2021/10/31 10:34:12;;;;;;;0.25;0.20;;;;;;;;;;5927622;24;20021;-93
2021/10/31 10:36:45;;;;;;;0.38;0.38;;;;;;;;;;5927299;24;20116;-93
2021/10/31 10:39:14;;;;;;;0.10;0.10;;;;;;;;;;5950752;24;20091;-95
2021/10/31 10:41:41;;;;;;;0.10;0.10;;;;;;;;;;5951508;24;20091;-90
2021/10/31 10:44:24;;;;;;;0.10;0.10;;;;;;;;;;5926822;24;20013;-90
2021/10/31 10:46:55;;;;;;;0.20;0.20;;;;;;;;;;5926446;24;20021;-91
2021/10/31 10:49:21;;;;;;;0.20;0.20;;;;;;;;;;5926053;24;20021;-89
2021/10/31 10:52:20;;;;;;;0.40;0.40;;;;;;;;;;5925949;24;20025;-88
2021/10/31 10:54:57;;;;;;;0.10;0.10;;;;;;;;;;5902713;24;20354;-88
2021/10/31 10:57:24;;;;;;;0.10;0.10;;;;;;;;;;5925517;24;20063;-88
2021/10/31 10:59:53;;;;;;;0.10;0.10;;;;;;;;;;5925374;24;20036;-89
2021/10/31 11:02:20;;;;;;;0.10;0.10;;;;;;;;;;5956190;24;20092;-91
2021/10/31 11:04:47;;;;;;;0.47;0.47;;;;;;;;;;5949986;24;20024;-87
2021/10/31 11:07:13;;;;;;;0.10;0.10;;;;;;;;;;5925436;24;20092;-88
2021/10/31 11:09:40;;;;;;;0.30;0.30;;;;;;;;;;5948888;24;20444;-89
2021/10/31 11:12:25;;;;;;;0.20;0.15;;;;;;;;;;5948764;24;20020;-88
2021/10/31 11:14:51;;;;;;;0.10;0.10;;;;;;;;;;5948508;24;20017;-88
2021/10/31 11:17:21;;;;;;;0.10;0.10;;;;;;;;;;5948674;24;20092;-91
2021/10/31 11:19:47;;;;;;;0.22;0.22;;;;;;;;;;5925595;24;20017;-93
2021/10/31 11:22:13;;;;;;;0.20;0.20;;;;;;;;;;5925843;24;20085;-87
2021/10/31 11:24:39;;;;;;;0.10;0.10;;;;;;;;;;5948588;24;20025;-89
2021/10/31 11:27:07;;;;;;;0.10;0.10;;;;;;;;;;5948306;24;20017;-87
2021/10/31 11:29:33;;;;;;;0.17;0.17;;;;;;;;;;5925554;24;20024;-90
2021/10/31 11:32:00;;;;;;;0.20;0.20;;;;;;;;;;5925645;24;20017;-87
2021/10/31 11:34:26;;;;;;;0.10;0.10;;;;;;;;;;5947674;24;20021;-88
2021/10/31 11:36:52;;;;;;;0.10;0.10;;;;;;;;;;5948430;24;20017;-87
2021/10/31 11:39:18;;;;;;;0.10;0.10;;;;;;;;;;5948141;24;20055;-88
2021/10/31 11:41:44;;;;;;;0.40;0.40;;;;;;;;;;5925171;24;20100;-87
2021/10/31 11:44:10;;;;;;;0.10;0.10;;;;;;;;;;5948621;24;20017;-88
2021/10/31 11:46:40;;;;;;;0.20;0.20;;;;;;;;;;5948216;24;20024;-88
2021/10/31 11:49:06;;;;;;;0.10;0.10;;;;;;;;;;5928444;24;20017;-87
2021/10/31 11:51:47;;;;;;;0.10;0.10;;;;;;;;;;5952902;24;20029;-87
2021/10/31 11:54:13;;;;;;;0.10;0.10;;;;;;;;;;5930061;24;20408;-87
2021/10/31 11:56:40;;;;;;;0.15;0.15;;;;;;;;;;5952707;24;20021;-88
2021/10/31 11:59:10;;;;;;;0.80;0.80;;;;;;;;;;5952782;24;20016;-87
2021/10/31 12:01:53;;;;;;;0.10;0.10;;;;;;;;;;5952661;24;20017;-88
2021/10/31 12:04:52;;;;;;;0.10;0.10;;;;;;;;;;5929831;24;20028;-87
2021/10/31 12:07:35;;;;;;;0.70;0.70;;;;;;;;;;5952526;24;20390;-88
2021/10/31 12:10:01;;;;;;;0.28;0.28;;;;;;;;;;5952891;24;20044;-87
2021/10/31 12:12:32;;;;;;;0.38;0.38;;;;;;;;;;5953009;24;20130;-85
2021/10/31 12:14:58;;;;;;;0.10;0.10;;;;;;;;;;5952733;24;20072;-86
2021/10/31 12:17:25;;;;;;;0.10;0.10;;;;;;;;;;5952667;24;20455;-87
2021/10/31 12:19:51;;;;;;;0.30;0.30;;;;;;;;;;5952339;24;20443;-88
2021/10/31 12:22:30;;;;;;;0.10;0.10;;;;;;;;;;5952549;24;20024;-87
2021/10/31 12:24:59;;;;;;;0.10;0.10;;;;;;;;;;5952521;24;20043;-88
2021/10/31 12:27:25;;;;;;;0.10;0.10;;;;;;;;;;5952514;24;20068;-88
2021/10/31 12:29:55;;;;;;;0.15;0.15;;;;;;;;;;5951796;24;20061;-88
2021/10/31 12:32:21;;;;;;;0.32;0.32;;;;;;;;;;5952242;24;20024;-89
2021/10/31 12:34:54;;;;;;;0.20;0.20;;;;;;;;;;5952100;24;20023;-88
2021/10/31 12:37:21;;;;;;;0.20;0.20;;;;;;;;;;5952481;24;20020;-88
2021/10/31 12:39:51;;;;;;;0.10;0.10;;;;;;;;;;5952307;24;20019;-89
2021/10/31 12:42:17;;;;;;;0.10;0.10;;;;;;;;;;5929074;24;20313;-89
2021/10/31 12:44:45;;;;;;;0.10;0.10;;;;;;;;;;5951891;24;20012;-88
2021/10/31 12:47:16;;;;;;;0.98;0.98;;;;;;;;;;5952278;24;20017;-89
2021/10/31 12:49:43;;;;;;;0.10;0.10;;;;;;;;;;5923370;24;20021;-89
2021/10/31 12:52:19;;;;;;;0.20;0.20;;;;;;;;;;5924455;24;20018;-88
2021/10/31 12:54:45;;;;;;;0.20;0.20;;;;;;;;;;5947627;24;20024;-88
2021/10/31 12:57:12;;;;;;;0.20;0.20;;;;;;;;;;5947724;24;20013;-88
2021/10/31 12:59:48;;;;;;;0.10;0.10;;;;;;;;;;5947704;24;20021;-89
2021/10/31 13:02:15;;;;;;;0.10;0.10;;;;;;;;;;5948079;24;20021;-89
2021/10/31 13:04:48;;;;;;;0.25;0.25;;;;;;;;;;5924545;24;20020;-89
2021/10/31 13:07:14;;;;;;;1.85;0.50;;;;;;;;;;5947975;24;20013;-89
2021/10/31 13:09:40;;;;;;;0.20;0.20;;;;;;;;;;5947997;24;20193;-89
2021/10/31 13:12:07;;;;;;;0.10;0.10;;;;;;;;;;5947816;24;20134;-89
2021/10/31 13:14:33;;;;;;;0.40;0.40;;;;;;;;;;5924518;24;20020;-89
2021/10/31 13:16:59;;;;;;;0.10;0.10;;;;;;;;;;5947902;24;20021;-91
2021/10/31 13:19:25;;;;;;;0.10;0.10;;;;;;;;;;5948079;24;20346;-89
2021/10/31 13:21:57;;;;;;;0.10;0.10;;;;;;;;;;5947718;24;20025;-90
2021/10/31 13:24:23;;;;;;;0.20;0.20;;;;;;;;;;5946977;24;20054;-89
2021/10/31 13:26:49;;;;;;;0.20;0.20;;;;;;;;;;5947486;24;20381;-89
2021/10/31 13:29:15;;;;;;;0.95;0.20;;;;;;;;;;5947775;24;20053;-89
2021/10/31 13:31:41;;;;;;;0.20;0.20;;;;;;;;;;5947906;24;20021;-89
2021/10/31 13:34:07;;;;;;;0.10;0.10;;;;;;;;;;5947718;24;20041;-89
2021/10/31 13:36:35;;;;;;;0.10;0.10;;;;;;;;;;5947642;24;20017;-89
2021/10/31 13:39:03;;;;;;;0.10;0.10;;;;;;;;;;5924488;24;20017;-89
2021/10/31 13:41:35;;;;;;;0.10;0.10;;;;;;;;;;5924964;24;20056;-91
2021/10/31 13:44:21;;;;;;;0.20;0.20;;;;;;;;;;5947684;24;20024;-88
2021/10/31 13:46:49;;;;;;;0.10;0.10;;;;;;;;;;5924584;24;20150;-88
2021/10/31 13:49:17;;;;;;;0.30;0.30;;;;;;;;;;5947231;24;20017;-88
2021/10/31 13:51:45;;;;;;;0.10;0.10;;;;;;;;;;5923750;24;20021;-88
2021/10/31 13:54:11;;;;;;;0.10;0.10;;;;;;;;;;5947407;24;20052;-87
2021/10/31 13:56:38;;;;;;;0.20;0.20;;;;;;;;;;5949032;24;20482;-88
2021/10/31 13:59:04;;;;;;;0.10;0.10;;;;;;;;;;5951999;24;20072;-89
2021/10/31 14:01:35;;;;;;;0.20;0.20;;;;;;;;;;5934086;24;20089;-89
2021/10/31 14:04:05;;;;;;;0.20;0.20;;;;;;;;;;5975489;24;20036;-89
2021/10/31 14:06:31;;;;;;;0.20;0.20;;;;;;;;;;5968960;24;20017;-90
2021/10/31 14:09:00;;;;;;;0.10;0.10;;;;;;;;;;5948835;24;20077;-89
2021/10/31 14:11:28;;;;;;;0.15;0.15;;;;;;;;;;5948902;24;20013;-90
2021/10/31 14:13:54;;;;;;;0.10;0.10;;;;;;;;;;5948832;24;20021;-90
2021/10/31 14:16:21;;;;;;;0.10;0.10;;;;;;;;;;5948776;24;20028;-90
2021/10/31 14:18:47;;;;;;;0.20;0.20;;;;;;;;;;5925755;24;20096;-90
2021/10/31 14:21:14;;;;;;;0.10;0.10;;;;;;;;;;5925520;24;20021;-90
2021/10/31 14:23:40;;;;;;;0.10;0.10;;;;;;;;;;5925647;24;20040;-89
2021/10/31 14:26:15;;;;;;;0.10;0.10;;;;;;;;;;5948660;24;20017;-90
2021/10/31 14:28:44;;;;;;;0.20;0.20;;;;;;;;;;5925609;24;20096;-89
2021/10/31 14:31:10;;;;;;;0.13;0.13;;;;;;;;;;5925088;24;20021;-88
2021/10/31 14:33:43;;;;;;;0.10;0.10;;;;;;;;;;5925628;24;20021;-88
2021/10/31 14:36:13;;;;;;;0.10;0.10;;;;;;;;;;5948564;24;20117;-87
2021/10/31 14:39:00;;;;;;;0.30;0.30;;;;;;;;;;5948065;24;20021;-88
2021/10/31 14:41:37;;;;;;;0.10;0.10;;;;;;;;;;5902833;24;20017;-88
2021/10/31 14:44:12;;;;;;;0.10;0.10;;;;;;;;;;5925308;24;20017;-90
2021/10/31 14:46:42;;;;;;;0.10;0.10;;;;;;;;;;5925911;24;20508;-90
2021/10/31 14:49:15;;;;;;;0.20;0.20;;;;;;;;;;5952886;24;20028;-90